Terminal Aerodrome Forecast
Issued by NWS

Home | Current Version | Previous Version | Text Only | Print | Product List | Glossary Off
Versions: 1 2 3 4 5 6 7 8 9 10 11 12 13 14

449
FTUS43 KBIS 260528
TAFJMS
TAF
KJMS 260528Z 2606/2706 22007KT P6SM SCT090
     FM261800 21012KT P6SM SCT080 BKN120
     FM270000 18010KT P6SM SCT060 BKN080
     FM270300 18007KT P6SM BKN060 OVC080=

USA.gov is the U.S. government's official web portal to all federal, state and local government web resources and services.